Time;durP1;ratioP1;P1;durP2;ratioP2;P2;SDS_P1;SDS_P2;PMS_P1;PMS_P2;Temp;Humidity;BMP_temperature;BMP_pressure;BME280_temperature;BME280_humidity;BME280_pressure;Samples;Min_cycle;Max_cycle;Signal;HPM_P1;HPM_P2
2021/12/25 00:00:57;;;;;;;13.25;4.53;;;1.00;99.90;;;;;;5092660;28;20046;-67
2021/12/25 00:03:23;;;;;;;10.02;4.88;;;1.00;99.90;;;;;;5093158;28;20371;-67
2021/12/25 00:05:52;;;;;;;8.95;4.07;;;1.00;99.90;;;;;;5093292;28;20036;-67
2021/12/25 00:08:29;;;;;;;10.40;4.65;;;1.00;99.90;;;;;;5110759;28;20067;-67
2021/12/25 00:10:56;;;;;;;13.10;4.65;;;1.00;99.90;;;;;;5093668;28;20130;-67
2021/12/25 00:13:22;;;;;;;11.43;4.32;;;0.90;99.90;;;;;;5096904;28;20128;-67
2021/12/25 00:15:50;;;;;;;9.48;4.40;;;0.90;99.90;;;;;;5094805;28;20066;-68
2021/12/25 00:18:16;;;;;;;8.27;3.88;;;0.90;99.90;;;;;;5096058;28;20047;-68
2021/12/25 00:20:43;;;;;;;8.65;3.78;;;0.80;99.90;;;;;;5096667;28;20148;-68
2021/12/25 00:23:10;;;;;;;7.57;3.70;;;0.80;99.90;;;;;;5096366;28;20056;-67
2021/12/25 00:25:42;;;;;;;11.95;3.63;;;0.80;99.90;;;;;;5080021;28;20047;-67
2021/12/25 00:31:02;;;;;;;10.48;4.00;;;0.80;99.90;;;;;;5095712;28;20578;-67
2021/12/25 00:36:01;;;;;;;10.82;3.70;;;0.70;99.90;;;;;;5123444;27;20285;-67
2021/12/25 00:38:27;;;;;;;14.82;3.80;;;0.70;99.90;;;;;;5095890;28;20067;-67
2021/12/25 00:40:53;;;;;;;8.10;3.10;;;0.70;99.90;;;;;;5096796;28;20120;-67
2021/12/25 00:43:18;;;;;;;7.07;3.45;;;0.70;99.90;;;;;;5095580;28;20058;-67
2021/12/25 00:45:44;;;;;;;8.35;3.72;;;0.60;99.90;;;;;;5077715;28;20393;-67
2021/12/25 00:48:10;;;;;;;7.97;3.30;;;0.60;99.90;;;;;;5061424;28;20039;-67
2021/12/25 00:50:35;;;;;;;9.80;3.38;;;0.60;99.90;;;;;;5096209;28;20043;-67
2021/12/25 00:53:01;;;;;;;8.10;3.08;;;0.60;99.90;;;;;;5095507;28;20101;-67
2021/12/25 00:55:27;;;;;;;9.25;3.75;;;0.60;99.90;;;;;;5129901;27;20051;-67
2021/12/25 00:57:52;;;;;;;9.27;3.50;;;0.60;99.90;;;;;;5095227;28;20066;-67
2021/12/25 01:00:19;;;;;;;6.82;3.03;;;0.60;99.90;;;;;;5095246;28;20055;-67
2021/12/25 01:02:47;;;;;;;8.13;3.38;;;0.60;99.90;;;;;;5096056;28;20067;-67
2021/12/25 01:05:15;;;;;;;12.00;3.33;;;0.60;99.90;;;;;;5095697;28;20074;-67
2021/12/25 01:07:41;;;;;;;8.40;3.40;;;0.50;99.90;;;;;;5094990;28;20043;-67
2021/12/25 01:10:13;;;;;;;6.47;3.20;;;0.50;99.90;;;;;;5129372;27;20039;-67
2021/12/25 01:13:28;;;;;;;7.28;2.97;;;0.40;99.90;;;;;;5096169;28;20343;-68
2021/12/25 01:15:47;;;;;;;6.50;2.97;;;0.40;99.90;;;;;;5085752;28;20047;-67
2021/12/25 01:29:49;;;;;;;6.45;2.95;;;0.30;99.90;;;;;;5047262;28;20053;-67
2021/12/25 01:48:15;;;;;;;7.88;2.47;;;0.90;99.90;;;;;;5092191;28;20468;-67
2021/12/25 01:50:41;;;;;;;4.20;2.10;;;-0.10;99.90;;;;;;5110439;28;20391;-68
2021/12/25 01:53:08;;;;;;;6.30;1.95;;;-0.10;99.90;;;;;;5095047;28;20089;-67
2021/12/25 01:55:34;;;;;;;3.90;2.30;;;-0.20;99.90;;;;;;5089875;28;20075;-68
2021/12/25 01:58:06;;;;;;;6.63;2.22;;;-0.20;99.90;;;;;;5090875;28;20039;-68
2021/12/25 02:00:37;;;;;;;5.78;2.17;;;-0.30;99.90;;;;;;5095341;28;20043;-68
2021/12/25 02:03:05;;;;;;;6.10;2.03;;;-0.30;99.90;;;;;;5088032;28;20487;-67
2021/12/25 02:05:31;;;;;;;4.43;1.85;;;-0.40;99.90;;;;;;5122537;27;20391;-68
2021/12/25 02:07:56;;;;;;;7.00;2.53;;;-0.40;99.90;;;;;;5087739;28;20032;-67
2021/12/25 02:10:22;;;;;;;5.93;1.77;;;-0.40;99.90;;;;;;5092636;28;20544;-68
2021/12/25 02:12:49;;;;;;;5.72;1.65;;;-0.50;99.90;;;;;;5094016;28;20035;-67
2021/12/25 02:15:20;;;;;;;7.63;1.83;;;-0.50;99.90;;;;;;5125816;27;20380;-67
2021/12/25 02:20:32;;;;;;;3.30;1.42;;;-0.60;99.90;;;;;;5094463;28;20043;-67
2021/12/25 02:23:04;;;;;;;4.25;1.52;;;-0.60;99.90;;;;;;5086733;28;20035;-67
2021/12/25 02:25:35;;;;;;;7.13;1.40;;;-0.70;99.90;;;;;;5120645;27;20055;-68
2021/12/25 02:28:03;;;;;;;3.53;1.17;;;-0.70;99.90;;;;;;5121005;27;20070;-67
2021/12/25 02:30:29;;;;;;;3.55;1.33;;;-0.70;99.90;;;;;;5125764;27;20067;-67
2021/12/25 02:32:58;;;;;;;3.55;1.17;;;-0.80;99.90;;;;;;5122494;27;20035;-67
2021/12/25 02:35:25;;;;;;;7.55;1.27;;;-0.80;99.90;;;;;;5092568;28;20051;-67
2021/12/25 02:37:51;;;;;;;2.55;1.27;;;-0.80;99.90;;;;;;5110616;28;20036;-67
2021/12/25 02:40:17;;;;;;;6.10;1.30;;;-0.80;99.90;;;;;;5093830;28;20051;-67
2021/12/25 02:42:42;;;;;;;5.93;1.27;;;-0.90;99.90;;;;;;5109394;28;20055;-67
2021/12/25 02:45:15;;;;;;;3.17;1.10;;;-1.00;99.90;;;;;;5084467;28;20054;-67
2021/12/25 02:47:43;;;;;;;4.53;1.30;;;-1.00;99.90;;;;;;5092891;28;20043;-66
2021/12/25 02:50:10;;;;;;;5.35;1.48;;;-1.10;99.90;;;;;;5087139;28;20066;-66
2021/12/25 02:52:35;;;;;;;2.95;1.10;;;-1.10;99.90;;;;;;5086925;28;20089;-67
2021/12/25 02:55:02;;;;;;;7.63;1.40;;;-1.10;99.90;;;;;;5086929;28;20087;-67
2021/12/25 02:57:27;;;;;;;4.78;1.30;;;-1.10;99.90;;;;;;5090725;28;20043;-66
2021/12/25 02:59:53;;;;;;;3.78;1.38;;;-1.10;99.90;;;;;;5070086;28;20039;-67
2021/12/25 03:02:19;;;;;;;4.20;1.20;;;-1.10;99.90;;;;;;5090135;28;20054;-66
2021/12/25 03:04:47;;;;;;;4.85;1.52;;;-1.20;99.90;;;;;;5104590;28;20084;-66
2021/12/25 03:07:13;;;;;;;7.75;1.20;;;-0.60;99.90;;;;;;5086885;28;20035;-66
2021/12/25 03:09:41;;;;;;;5.97;1.58;;;-1.30;99.90;;;;;;5093032;28;20517;-66
2021/12/25 03:12:08;;;;;;;4.40;1.20;;;-1.30;99.90;;;;;;5088023;28;20088;-66
2021/12/25 03:15:01;;;;;;;9.18;1.30;;;-1.30;99.90;;;;;;5075356;28;20043;-66
2021/12/25 03:17:27;;;;;;;4.63;1.63;;;-1.40;99.90;;;;;;5093042;28;20047;-66
2021/12/25 03:19:55;;;;;;;4.43;1.05;;;-1.40;99.90;;;;;;5086709;28;20044;-66
2021/12/25 03:22:21;;;;;;;5.00;1.88;;;-1.40;99.90;;;;;;5111348;28;21421;-66
2021/12/25 03:24:47;;;;;;;2.40;1.40;;;-1.40;99.90;;;;;;5086609;28;20081;-66
2021/12/25 03:27:13;;;;;;;6.95;1.33;;;-1.40;99.90;;;;;;5088334;28;20043;-66
2021/12/25 03:29:41;;;;;;;6.47;1.30;;;-1.50;99.90;;;;;;5057196;28;20119;-66
2021/12/25 03:32:07;;;;;;;2.45;1.02;;;-1.60;99.90;;;;;;5086494;28;20040;-66
2021/12/25 03:34:33;;;;;;;6.22;1.70;;;-1.60;99.90;;;;;;5104859;28;20067;-66
2021/12/25 03:36:59;;;;;;;4.07;1.40;;;-1.60;99.90;;;;;;5086941;28;20073;-66
2021/12/25 03:39:25;;;;;;;4.20;1.20;;;-1.60;99.90;;;;;;5092427;28;20047;-66
2021/12/25 03:41:50;;;;;;;5.57;1.27;;;-1.60;99.90;;;;;;5092214;28;20036;-66
2021/12/25 03:44:16;;;;;;;2.42;1.23;;;-1.70;99.90;;;;;;5092765;28;20071;-66
2021/12/25 03:46:43;;;;;;;3.10;1.17;;;-1.70;99.90;;;;;;5077510;28;20036;-66
2021/12/25 03:49:15;;;;;;;5.10;1.10;;;-1.70;99.90;;;;;;5115371;28;20039;-66
2021/12/25 03:57:43;;;;;;;7.28;0.95;;;-1.90;99.90;;;;;;5099469;28;20664;-66
2021/12/25 04:00:13;;;;;;;4.38;1.00;;;-1.90;99.90;;;;;;5079604;28;20043;-66
2021/12/25 04:02:50;;;;;;;4.32;1.00;;;-1.90;99.90;;;;;;5089365;28;20077;-66
2021/12/25 04:05:19;;;;;;;2.88;1.50;;;-1.90;99.90;;;;;;5096779;28;20548;-66
2021/12/25 04:10:36;;;;;;;3.20;0.88;;;-1.90;99.90;;;;;;5130026;27;20062;-66
2021/12/25 04:13:05;;;;;;;3.97;1.02;;;-2.00;99.90;;;;;;5128417;27;20494;-66
2021/12/25 04:15:31;;;;;;;2.97;1.00;;;-2.00;99.90;;;;;;5093653;28;20126;-66
2021/12/25 04:17:57;;;;;;;4.70;1.45;;;-2.00;99.90;;;;;;5096246;28;20543;-66
2021/12/25 04:20:23;;;;;;;6.30;0.90;;;-2.00;99.90;;;;;;5096149;28;20043;-66
2021/12/25 04:22:57;;;;;;;2.42;1.45;;;-2.10;99.90;;;;;;5096309;28;20127;-66
2021/12/25 04:25:27;;;;;;;2.45;0.90;;;-2.10;99.90;;;;;;5095734;28;20131;-66
2021/12/25 04:27:56;;;;;;;4.10;1.17;;;-2.10;99.90;;;;;;5096215;28;20126;-66
2021/12/25 04:31:04;;;;;;;2.40;0.80;;;-2.10;99.90;;;;;;5096568;28;20104;-66
2021/12/25 05:05:31;;;;;;;2.65;0.90;;;-2.60;99.90;;;;;;5115029;28;20044;-66
2021/12/25 05:07:56;;;;;;;1.48;0.68;;;-2.60;99.90;;;;;;5087724;28;20047;-66
2021/12/25 05:10:22;;;;;;;1.35;0.60;;;-2.60;99.90;;;;;;5096745;28;20498;-66
2021/12/25 05:12:48;;;;;;;3.97;0.80;;;-2.60;99.90;;;;;;5113915;28;20510;-66
2021/12/25 05:15:14;;;;;;;2.95;0.93;;;-2.70;99.90;;;;;;5095941;28;20047;-65
2021/12/25 05:17:39;;;;;;;2.53;0.80;;;-2.70;99.90;;;;;;5095354;28;20036;-65
2021/12/25 05:20:05;;;;;;;1.20;0.82;;;-2.70;99.90;;;;;;5113945;28;20039;-65
2021/12/25 05:22:32;;;;;;;2.45;1.90;;;-2.80;99.90;;;;;;5111547;28;20046;-66
2021/12/25 05:24:57;;;;;;;1.88;0.70;;;-2.80;99.90;;;;;;5129816;27;20058;-66
2021/12/25 05:27:23;;;;;;;1.90;0.70;;;-2.80;99.90;;;;;;5096006;28;20040;-65
2021/12/25 05:29:49;;;;;;;1.33;0.68;;;-2.80;99.90;;;;;;5095413;27;20043;-66
2021/12/25 05:32:17;;;;;;;1.45;0.80;;;-2.70;99.90;;;;;;5095897;28;20044;-65
2021/12/25 05:34:43;;;;;;;1.83;0.75;;;-2.80;99.90;;;;;;5079127;28;20062;-66
2021/12/25 05:37:08;;;;;;;1.55;0.65;;;-2.90;99.90;;;;;;5095722;28;20139;-65
2021/12/25 05:39:35;;;;;;;2.00;0.80;;;-2.90;99.90;;;;;;5112883;28;20110;-66
2021/12/25 05:42:01;;;;;;;1.55;0.70;;;-3.00;99.90;;;;;;5113556;28;20042;-66
2021/12/25 05:44:26;;;;;;;2.83;1.00;;;-2.40;99.90;;;;;;5095411;28;20047;-66
2021/12/25 05:46:52;;;;;;;2.42;0.73;;;-2.90;99.90;;;;;;5093689;28;20042;-65
2021/12/25 05:49:18;;;;;;;0.93;0.70;;;-3.00;99.90;;;;;;5124684;27;20044;-65
2021/12/25 05:51:44;;;;;;;1.00;0.60;;;-3.00;99.90;;;;;;5128991;27;20043;-65
2021/12/25 05:54:10;;;;;;;1.88;0.82;;;-3.00;99.90;;;;;;5086354;28;20108;-66
2021/12/25 05:56:35;;;;;;;3.38;1.40;;;-3.00;99.90;;;;;;5095048;28;20122;-65
2021/12/25 05:59:01;;;;;;;5.32;1.10;;;-3.00;99.90;;;;;;5095231;28;20043;-65
2021/12/25 06:01:28;;;;;;;2.97;0.80;;;-3.00;99.90;;;;;;5075919;28;20043;-66
2021/12/25 06:03:53;;;;;;;1.83;0.93;;;-3.00;99.90;;;;;;5129506;27;20044;-65
2021/12/25 06:06:19;;;;;;;4.05;0.88;;;-3.10;99.90;;;;;;5113163;28;20395;-65
2021/12/25 06:08:45;;;;;;;1.58;0.93;;;-3.10;99.90;;;;;;5094043;28;20035;-66
2021/12/25 06:11:11;;;;;;;2.05;0.82;;;-3.10;99.90;;;;;;5094876;28;20043;-65
2021/12/25 06:13:44;;;;;;;1.65;0.85;;;-3.10;99.90;;;;;;5092235;28;20373;-65
2021/12/25 06:16:09;;;;;;;1.20;0.82;;;-3.10;99.90;;;;;;5094753;28;20510;-66
2021/12/25 06:18:35;;;;;;;2.75;0.80;;;-3.10;99.90;;;;;;5094672;28;20058;-66
2021/12/25 06:21:01;;;;;;;2.30;0.77;;;-3.10;99.90;;;;;;5093265;28;20035;-65
2021/12/25 06:23:29;;;;;;;4.38;0.90;;;-3.10;99.90;;;;;;5093909;28;20550;-65
2021/12/25 06:25:55;;;;;;;2.53;0.90;;;-3.10;99.90;;;;;;5094318;28;20056;-66
2021/12/25 06:28:21;;;;;;;2.03;0.90;;;-3.10;99.90;;;;;;5091642;28;20055;-65
2021/12/25 06:30:49;;;;;;;2.00;0.88;;;-3.10;99.90;;;;;;5094101;28;20036;-66
2021/12/25 06:33:15;;;;;;;1.27;0.80;;;-3.10;99.90;;;;;;5077745;28;20047;-66
2021/12/25 06:35:41;;;;;;;2.38;0.80;;;-3.10;99.90;;;;;;5093846;28;20052;-66
2021/12/25 06:38:06;;;;;;;3.90;0.85;;;-3.10;99.90;;;;;;5093772;28;20050;-66
2021/12/25 06:40:32;;;;;;;2.50;0.90;;;-3.20;99.90;;;;;;5094501;28;20448;-65
2021/12/25 06:42:58;;;;;;;7.50;1.20;;;-3.20;99.90;;;;;;5093954;28;20039;-66
2021/12/25 06:45:24;;;;;;;2.75;0.90;;;-3.20;99.90;;;;;;5094016;28;20031;-65
2021/12/25 06:47:50;;;;;;;1.55;0.90;;;-3.20;99.90;;;;;;5112289;28;20114;-65
2021/12/25 06:50:16;;;;;;;5.68;1.13;;;-3.20;99.90;;;;;;5094544;28;20040;-65
2021/12/25 06:52:45;;;;;;;3.03;0.70;;;-3.20;99.90;;;;;;5077649;28;20047;-66
2021/12/25 06:55:12;;;;;;;2.03;0.80;;;-3.20;99.90;;;;;;5090487;28;20047;-66
2021/12/25 06:57:45;;;;;;;1.60;0.75;;;-3.20;99.90;;;;;;5120322;27;20487;-66
2021/12/25 07:00:12;;;;;;;1.88;0.70;;;-3.30;99.90;;;;;;5076539;28;20051;-66
2021/12/25 07:02:38;;;;;;;2.47;0.90;;;-3.30;99.90;;;;;;5077478;28;20134;-66
2021/12/25 07:05:05;;;;;;;1.67;0.90;;;-3.30;99.90;;;;;;5094303;28;20132;-66
2021/12/25 07:07:30;;;;;;;1.45;0.70;;;-3.30;99.90;;;;;;5112388;28;20035;-66
2021/12/25 07:09:56;;;;;;;3.50;0.80;;;-1.90;99.90;;;;;;5094304;28;20100;-66
2021/12/25 07:12:24;;;;;;;5.13;0.80;;;-3.30;99.90;;;;;;5090749;28;20503;-66
2021/12/25 07:14:50;;;;;;;2.38;0.75;;;-3.30;99.90;;;;;;5094125;28;20099;-66
2021/12/25 07:17:16;;;;;;;3.10;0.73;;;-3.30;99.90;;;;;;5106748;28;20122;-66
2021/12/25 07:19:41;;;;;;;2.17;0.70;;;-3.30;99.90;;;;;;5111971;28;20044;-66
2021/12/25 07:22:07;;;;;;;1.60;0.70;;;-3.40;99.90;;;;;;5093556;28;20372;-66
2021/12/25 07:24:33;;;;;;;1.58;0.70;;;-3.40;99.90;;;;;;5111951;28;20065;-66
2021/12/25 07:27:03;;;;;;;1.33;0.60;;;-3.50;99.90;;;;;;5111887;28;20059;-66
2021/12/25 07:29:29;;;;;;;2.08;0.50;;;-3.50;99.90;;;;;;5093931;28;20415;-66
2021/12/25 07:31:55;;;;;;;2.35;0.70;;;-3.50;99.90;;;;;;5091697;28;20675;-66
2021/12/25 07:34:20;;;;;;;1.48;0.60;;;-3.40;99.90;;;;;;5093844;28;20047;-66
2021/12/25 07:36:46;;;;;;;2.47;0.90;;;-3.40;99.90;;;;;;5093270;28;20066;-66
2021/12/25 07:39:12;;;;;;;1.95;0.60;;;-3.40;99.90;;;;;;5093168;28;20218;-66
2021/12/25 07:41:38;;;;;;;2.17;0.60;;;-3.10;99.90;;;;;;5093849;28;20395;-66
2021/12/25 07:44:04;;;;;;;0.73;0.47;;;-3.50;99.90;;;;;;5093519;28;20040;-66
2021/12/25 07:46:30;;;;;;;2.50;0.80;;;-3.50;99.90;;;;;;5082207;28;20040;-66
2021/12/25 07:48:57;;;;;;;5.57;0.63;;;-3.50;99.90;;;;;;5078711;28;20052;-66
2021/12/25 07:51:23;;;;;;;2.72;0.80;;;-3.50;99.90;;;;;;5109668;28;20058;-67
2021/12/25 07:53:49;;;;;;;3.30;0.70;;;-3.50;99.90;;;;;;5093887;28;20043;-66
2021/12/25 07:56:15;;;;;;;2.33;0.60;;;-3.50;99.90;;;;;;5093197;28;20403;-66
2021/12/25 07:58:42;;;;;;;2.70;0.80;;;-3.50;99.90;;;;;;5076226;28;20035;-66
2021/12/25 08:01:08;;;;;;;0.80;0.52;;;-3.60;99.90;;;;;;5100067;28;20479;-66
2021/12/25 08:03:35;;;;;;;1.05;0.50;;;-3.60;99.90;;;;;;5093366;28;20044;-66
2021/12/25 08:06:01;;;;;;;2.10;1.02;;;-3.60;99.90;;;;;;5093102;28;20044;-67
2021/12/25 08:08:27;;;;;;;1.92;0.68;;;-3.60;99.90;;;;;;5093397;28;20402;-66
2021/12/25 08:10:53;;;;;;;1.77;0.70;;;-3.70;99.90;;;;;;5093185;28;20131;-66
2021/12/25 08:13:19;;;;;;;1.20;0.57;;;-3.70;99.90;;;;;;5076534;28;20097;-66
2021/12/25 08:15:45;;;;;;;1.02;0.50;;;-3.80;99.90;;;;;;5093070;28;20044;-66
2021/12/25 08:18:11;;;;;;;1.15;0.60;;;-3.70;99.90;;;;;;5076909;28;20453;-67
2021/12/25 08:20:37;;;;;;;6.07;0.70;;;-3.70;99.90;;;;;;5092280;28;20122;-66
2021/12/25 08:23:03;;;;;;;1.15;0.60;;;-3.70;99.90;;;;;;5127053;27;20059;-66
2021/12/25 08:25:28;;;;;;;0.85;0.50;;;-3.70;99.90;;;;;;5093047;28;20051;-68
2021/12/25 08:27:55;;;;;;;2.67;0.80;;;-3.70;99.90;;;;;;5056082;28;20051;-65
2021/12/25 08:30:23;;;;;;;2.35;0.68;;;-3.70;99.90;;;;;;5091861;28;20144;-66
2021/12/25 08:32:55;;;;;;;2.85;0.55;;;-3.70;99.90;;;;;;5110595;28;20051;-66
2021/12/25 08:35:21;;;;;;;2.38;0.73;;;-2.30;99.90;;;;;;5115006;28;20192;-66
2021/12/25 08:37:47;;;;;;;1.98;0.52;;;-3.60;99.90;;;;;;5128053;27;20372;-66
2021/12/25 08:40:14;;;;;;;1.70;0.70;;;-3.60;99.90;;;;;;5093290;28;20051;-66
2021/12/25 08:42:45;;;;;;;2.28;0.65;;;-3.60;99.90;;;;;;5096325;28;20040;-66
2021/12/25 08:45:38;;;;;;;2.17;0.65;;;-3.50;99.90;;;;;;5130729;27;20077;-66
2021/12/25 08:47:58;;;;;;;1.00;0.60;;;-3.50;99.90;;;;;;5093795;28;20054;-66
2021/12/25 08:50:25;;;;;;;1.25;0.60;;;-3.60;99.90;;;;;;5096018;28;20051;-66
2021/12/25 08:52:50;;;;;;;1.17;0.40;;;-3.50;99.90;;;;;;5093548;28;20087;-66
2021/12/25 08:55:16;;;;;;;1.58;0.50;;;-3.50;99.90;;;;;;5096078;28;20136;-66
2021/12/25 08:57:42;;;;;;;1.42;0.60;;;-3.50;99.90;;;;;;5095899;28;20115;-66
2021/12/25 09:00:09;;;;;;;1.20;0.50;;;-3.50;99.90;;;;;;5096124;28;20100;-66
2021/12/25 09:02:34;;;;;;;3.58;0.60;;;-3.50;99.90;;;;;;5076460;28;20049;-66
2021/12/25 09:05:00;;;;;;;3.67;0.88;;;-3.40;99.90;;;;;;5079164;28;20092;-66
2021/12/25 09:07:26;;;;;;;1.70;0.60;;;-3.50;99.90;;;;;;5095887;28;20093;-66
2021/12/25 09:09:52;;;;;;;2.40;0.57;;;-3.40;99.90;;;;;;5113120;28;20101;-66
2021/12/25 09:12:20;;;;;;;2.22;0.50;;;-3.40;99.90;;;;;;5096151;28;20040;-66
2021/12/25 09:14:46;;;;;;;1.92;0.70;;;-3.40;99.90;;;;;;5111740;28;20043;-67
2021/12/25 09:17:13;;;;;;;2.67;0.70;;;-3.30;99.90;;;;;;5087683;28;20081;-67
2021/12/25 09:19:39;;;;;;;2.90;0.70;;;-3.30;99.90;;;;;;5110935;28;20036;-67
2021/12/25 09:22:06;;;;;;;2.35;0.70;;;-3.20;99.90;;;;;;5092520;28;20040;-66
2021/12/25 09:24:32;;;;;;;3.97;0.70;;;-3.20;99.90;;;;;;5092498;27;20039;-67
2021/12/25 09:26:58;;;;;;;1.67;0.40;;;-3.20;99.90;;;;;;5113327;28;20082;-67
2021/12/25 09:29:24;;;;;;;2.63;0.50;;;-3.10;99.90;;;;;;5113800;28;20127;-67
2021/12/25 09:31:50;;;;;;;2.45;0.70;;;-3.10;99.90;;;;;;5092837;28;20508;-65
2021/12/25 09:34:16;;;;;;;1.25;0.50;;;-3.10;99.90;;;;;;5094985;28;20396;-67
2021/12/25 09:36:41;;;;;;;1.15;0.47;;;-3.10;99.90;;;;;;5113497;28;20062;-66
2021/12/25 09:39:07;;;;;;;5.05;0.60;;;-3.10;99.90;;;;;;5112016;28;20161;-66
2021/12/25 09:41:33;;;;;;;3.17;0.60;;;-3.00;99.90;;;;;;5092187;28;20047;-66
2021/12/25 09:44:01;;;;;;;3.33;0.50;;;-3.00;99.90;;;;;;5113519;28;20499;-66
2021/12/25 09:46:27;;;;;;;0.95;0.47;;;-3.00;99.90;;;;;;5093403;28;20514;-66
2021/12/25 09:48:54;;;;;;;1.77;0.80;;;-2.90;99.90;;;;;;5094191;28;20044;-66
2021/12/25 09:51:19;;;;;;;2.10;0.57;;;-2.90;99.90;;;;;;5095053;28;20139;-67
2021/12/25 09:53:59;;;;;;;3.35;0.98;;;-2.90;99.90;;;;;;5061599;28;20124;-66
2021/12/25 09:56:26;;;;;;;2.53;0.60;;;-2.80;99.90;;;;;;5095130;28;20047;-66
2021/12/25 09:58:52;;;;;;;1.75;0.70;;;-2.80;99.90;;;;;;5094332;28;20107;-66
2021/12/25 10:01:37;;;;;;;1.08;0.60;;;-2.80;99.90;;;;;;5092726;28;20126;-66
2021/12/25 10:04:04;;;;;;;1.67;0.60;;;-2.70;99.90;;;;;;5125911;27;20092;-66
2021/12/25 10:06:34;;;;;;;2.35;0.75;;;-2.70;99.90;;;;;;5126326;27;20040;-66
2021/12/25 10:09:10;;;;;;;1.10;0.60;;;-2.70;99.90;;;;;;5094569;28;20047;-66
2021/12/25 10:11:36;;;;;;;0.80;0.45;;;-2.60;99.90;;;;;;5094437;28;20040;-66
2021/12/25 10:14:02;;;;;;;4.82;0.65;;;-2.60;99.90;;;;;;5112971;28;20050;-66
2021/12/25 10:16:31;;;;;;;3.88;0.68;;;-2.50;99.90;;;;;;5111157;28;20065;-66
2021/12/25 10:19:20;;;;;;;3.10;0.75;;;-2.50;99.90;;;;;;5094590;28;20048;-67
2021/12/25 10:21:46;;;;;;;2.17;0.68;;;-2.50;99.90;;;;;;5085779;28;20044;-67
2021/12/25 10:24:27;;;;;;;3.63;0.77;;;-2.20;99.90;;;;;;5094507;28;20056;-67
2021/12/25 10:27:06;;;;;;;1.58;0.65;;;-2.50;99.90;;;;;;5111813;28;20491;-67
2021/12/25 10:29:32;;;;;;;1.85;1.00;;;-2.50;99.90;;;;;;5091097;28;20115;-67
2021/12/25 10:31:59;;;;;;;2.47;0.80;;;-2.50;99.90;;;;;;5093086;28;20122;-67
2021/12/25 10:34:31;;;;;;;4.65;0.85;;;-2.50;99.90;;;;;;5112539;28;20054;-67
2021/12/25 10:37:08;;;;;;;2.35;0.47;;;-2.50;99.90;;;;;;5091519;28;20126;-67
2021/12/25 10:39:35;;;;;;;3.17;0.70;;;-2.40;99.90;;;;;;5093420;28;20065;-67
2021/12/25 10:42:12;;;;;;;2.95;0.70;;;-2.40;99.90;;;;;;5127941;27;20113;-67
2021/12/25 10:44:42;;;;;;;3.15;0.70;;;-2.40;99.90;;;;;;5091024;28;20536;-67
2021/12/25 10:47:17;;;;;;;2.13;0.63;;;-2.40;99.90;;;;;;5093375;28;20047;-67
2021/12/25 10:49:47;;;;;;;2.50;0.83;;;-2.30;99.90;;;;;;5090673;28;20177;-67
2021/12/25 10:52:16;;;;;;;1.52;0.80;;;-2.30;99.90;;;;;;5110041;28;20036;-67
2021/12/25 10:54:44;;;;;;;2.80;1.40;;;-2.30;99.90;;;;;;5126730;27;20044;-67
2021/12/25 10:57:10;;;;;;;3.00;1.00;;;-2.20;99.90;;;;;;5093907;28;20486;-67
2021/12/25 10:59:44;;;;;;;3.20;0.60;;;-2.20;99.90;;;;;;5126048;27;20046;-67
2021/12/25 11:02:27;;;;;;;2.03;0.70;;;-2.10;99.90;;;;;;5091961;28;20048;-65
2021/12/25 11:04:53;;;;;;;1.17;0.60;;;-2.10;99.90;;;;;;5083104;28;20044;-67
2021/12/25 11:07:19;;;;;;;2.92;0.75;;;-2.00;99.90;;;;;;5093875;28;20441;-67
2021/12/25 11:10:03;;;;;;;5.43;0.82;;;-2.00;99.90;;;;;;5093657;28;20035;-68
2021/12/25 11:12:30;;;;;;;2.25;0.80;;;-2.00;99.90;;;;;;5090516;28;20035;-67
2021/12/25 11:15:19;;;;;;;1.35;0.45;;;-2.00;99.90;;;;;;5076230;28;20032;-67
2021/12/25 11:17:52;;;;;;;2.95;0.75;;;-2.00;99.90;;;;;;5091282;28;20051;-67
2021/12/25 11:20:28;;;;;;;4.93;0.68;;;-2.00;99.90;;;;;;5093301;28;20144;-68
2021/12/25 11:22:57;;;;;;;3.72;0.75;;;-1.90;99.90;;;;;;5127869;27;20507;-68
2021/12/25 11:25:26;;;;;;;1.92;0.65;;;-1.90;99.90;;;;;;5092468;28;20185;-68
2021/12/25 11:27:53;;;;;;;3.13;0.73;;;-1.90;99.90;;;;;;5091958;28;20044;-67
2021/12/25 11:30:21;;;;;;;2.47;0.60;;;-1.80;99.90;;;;;;5093678;28;20104;-67
2021/12/25 11:32:48;;;;;;;2.67;1.02;;;-1.80;99.90;;;;;;5081756;28;20071;-67
2021/12/25 11:35:16;;;;;;;2.47;0.77;;;-1.80;99.90;;;;;;5092943;28;20043;-68
2021/12/25 11:37:43;;;;;;;2.53;0.80;;;-1.80;99.90;;;;;;5093820;28;20749;-68
2021/12/25 11:40:10;;;;;;;4.93;0.80;;;-1.70;99.90;;;;;;5092760;28;20050;-67
2021/12/25 11:42:46;;;;;;;1.80;0.65;;;-1.70;99.90;;;;;;5093723;28;20118;-68
2021/12/25 11:45:17;;;;;;;4.10;0.70;;;-1.70;99.90;;;;;;5093273;28;20073;-68
2021/12/25 11:47:45;;;;;;;3.40;0.75;;;-1.70;99.90;;;;;;5111963;28;20499;-67
2021/12/25 11:50:15;;;;;;;4.63;0.70;;;-1.70;99.90;;;;;;5093281;28;20067;-67
2021/12/25 11:53:04;;;;;;;1.65;0.70;;;-1.60;99.90;;;;;;5105162;28;20032;-68
2021/12/25 11:58:25;;;;;;;3.75;0.77;;;-1.40;99.90;;;;;;5105690;28;20046;-67
2021/12/25 12:00:52;;;;;;;3.00;0.80;;;-1.60;99.90;;;;;;5112000;28;20042;-67
2021/12/25 12:03:46;;;;;;;4.35;0.90;;;-1.50;99.90;;;;;;5111565;28;20047;-67
2021/12/25 12:06:13;;;;;;;2.45;0.77;;;-1.50;99.90;;;;;;5090775;28;20052;-67
2021/12/25 12:08:54;;;;;;;3.35;1.00;;;-1.50;99.90;;;;;;5077789;28;20071;-67
2021/12/25 12:11:22;;;;;;;3.22;1.08;;;-1.50;99.90;;;;;;5087718;28;20399;-67
2021/12/25 12:14:16;;;;;;;1.35;0.88;;;-1.40;99.90;;;;;;5091542;28;20046;-67
2021/12/25 12:16:48;;;;;;;3.33;1.20;;;-1.40;99.90;;;;;;5094140;28;20046;-67
2021/12/25 12:22:00;;;;;;;3.30;0.80;;;-1.40;99.90;;;;;;5125743;27;20039;-67
2021/12/25 12:27:03;;;;;;;3.92;0.77;;;-1.40;99.90;;;;;;5091680;28;20126;-67
2021/12/25 12:29:49;;;;;;;1.75;0.80;;;-1.40;99.90;;;;;;5131255;27;20124;-67
2021/12/25 12:32:15;;;;;;;;;;;-0.80;99.90;;;;;;5087738;28;20123;-67
2021/12/25 12:34:41;;;;;;;2.63;0.80;;;-0.50;99.90;;;;;;5086499;28;19999;-67
2021/12/25 12:37:19;;;;;;;1.70;0.70;;;-1.30;99.90;;;;;;5073816;28;20123;-67
2021/12/25 12:40:06;;;;;;;2.58;0.88;;;-1.30;99.90;;;;;;5066792;28;20040;-66
2021/12/25 12:42:46;;;;;;;2.92;0.63;;;-1.30;99.90;;;;;;5125405;27;20471;-66
2021/12/25 12:45:19;;;;;;;3.63;0.80;;;-0.30;99.90;;;;;;5126632;27;20495;-67
2021/12/25 12:48:15;;;;;;;5.40;0.93;;;-1.20;99.90;;;;;;5094512;28;20123;-67
2021/12/25 12:50:44;;;;;;;3.38;0.90;;;-1.20;99.90;;;;;;5073903;28;20043;-67
2021/12/25 12:53:09;;;;;;;2.83;1.20;;;-1.10;99.90;;;;;;5112877;28;20051;-67
2021/12/25 12:55:38;;;;;;;1.90;0.70;;;-1.20;99.90;;;;;;5114315;28;20043;-67
2021/12/25 12:58:17;;;;;;;2.90;0.75;;;-1.20;99.90;;;;;;5092901;28;20043;-67
2021/12/25 13:01:07;;;;;;;2.90;1.20;;;-1.20;99.90;;;;;;5111519;27;20040;-67
2021/12/25 13:03:33;;;;;;;2.53;1.00;;;-1.10;99.90;;;;;;5095419;28;20039;-67
2021/12/25 13:06:05;;;;;;;2.55;1.00;;;-1.10;99.90;;;;;;5093607;28;20132;-67
2021/12/25 13:08:35;;;;;;;2.55;1.08;;;-1.20;99.90;;;;;;5088421;28;20395;-67
2021/12/25 13:11:14;;;;;;;4.38;1.30;;;-1.20;99.90;;;;;;5094926;28;20054;-67
2021/12/25 13:13:50;;;;;;;2.72;0.80;;;-1.20;99.90;;;;;;5094531;28;20043;-69
2021/12/25 13:16:17;;;;;;;3.55;0.95;;;-1.20;99.90;;;;;;5091196;28;20039;-68
2021/12/25 13:18:48;;;;;;;1.77;0.70;;;-1.20;99.90;;;;;;5090309;28;20455;-67
2021/12/25 13:21:18;;;;;;;2.65;1.00;;;-1.20;99.90;;;;;;5088558;27;20057;-67
2021/12/25 13:23:52;;;;;;;2.85;1.30;;;-1.10;99.90;;;;;;5090150;28;20047;-67
2021/12/25 13:26:33;;;;;;;4.03;1.80;;;-1.10;99.90;;;;;;5076666;28;20130;-67
2021/12/25 13:29:01;;;;;;;3.50;1.40;;;-1.10;99.90;;;;;;5094890;28;20178;-67
2021/12/25 13:31:29;;;;;;;4.43;1.90;;;-1.10;99.90;;;;;;5094278;28;20115;-68
2021/12/25 13:34:01;;;;;;;7.35;2.80;;;-1.10;99.90;;;;;;5095153;28;20036;-67
2021/12/25 13:36:30;;;;;;;4.63;1.90;;;-0.80;99.90;;;;;;5094336;28;20572;-67
2021/12/25 13:38:59;;;;;;;2.95;1.50;;;-1.10;99.90;;;;;;5094045;28;20035;-67
2021/12/25 13:41:30;;;;;;;2.72;1.50;;;-1.10;99.90;;;;;;5093917;28;20059;-67
2021/12/25 13:44:15;;;;;;;1.77;1.00;;;-1.10;99.90;;;;;;5125214;27;20036;-67
2021/12/25 13:46:46;;;;;;;6.72;0.90;;;-1.20;99.90;;;;;;5091059;28;20138;-67
2021/12/25 13:49:51;;;;;;;2.38;1.00;;;-1.20;99.90;;;;;;5094166;28;20043;-67
2021/12/25 13:52:20;;;;;;;2.15;1.05;;;-1.20;99.90;;;;;;5094263;28;20043;-68
2021/12/25 13:55:10;;;;;;;2.00;0.80;;;-1.10;99.90;;;;;;5091083;28;20044;-67
2021/12/25 13:57:41;;;;;;;3.97;1.10;;;-1.10;99.90;;;;;;5077397;28;20051;-67
2021/12/25 14:00:12;;;;;;;1.73;0.80;;;-1.10;99.90;;;;;;5094225;28;20526;-67
2021/12/25 14:02:41;;;;;;;2.50;1.00;;;-1.10;99.90;;;;;;5077151;28;20051;-67
2021/12/25 14:05:08;;;;;;;2.85;1.00;;;-1.10;99.90;;;;;;5094001;28;20044;-67
2021/12/25 14:07:36;;;;;;;1.38;0.80;;;-1.20;99.90;;;;;;5092705;28;20138;-67
2021/12/25 14:10:14;;;;;;;1.90;1.00;;;-1.20;99.90;;;;;;5127449;27;20047;-68
2021/12/25 14:12:44;;;;;;;1.80;0.95;;;-1.20;99.90;;;;;;5093666;28;20508;-67
2021/12/25 14:15:11;;;;;;;3.80;1.05;;;-1.30;99.90;;;;;;5092820;28;20419;-67
2021/12/25 14:17:37;;;;;;;1.40;0.80;;;-1.30;99.90;;;;;;5092928;28;20571;-68
2021/12/25 14:20:17;;;;;;;2.70;0.88;;;-1.30;99.90;;;;;;5093684;28;20047;-67
2021/12/25 14:22:45;;;;;;;2.13;0.95;;;-1.30;99.90;;;;;;5084376;28;20060;-68